createdAt,value
2016-02-06T00:00:51.314Z,91
2016-02-06T00:01:51.818Z,91
2016-02-06T00:02:52.336Z,91
2016-02-06T00:03:52.839Z,92
2016-02-06T00:04:53.607Z,92
2016-02-06T00:05:54.374Z,92
2016-02-06T00:06:55.207Z,92
2016-02-06T00:07:56.930Z,92
2016-02-06T00:08:57.699Z,92
2016-02-06T00:09:58.451Z,92
2016-02-06T00:10:59.220Z,92
2016-02-06T00:11:59.987Z,92
2016-02-06T00:13:00.757Z,92
2016-02-06T00:14:01.525Z,92
2016-02-06T00:15:02.278Z,92
2016-02-06T00:16:03.047Z,92
2016-02-06T00:17:03.894Z,92
2016-02-06T00:18:05.615Z,92
2016-02-06T00:19:06.368Z,92
2016-02-06T00:20:07.307Z,92
2016-02-06T00:21:07.906Z,92
2016-02-06T00:22:08.673Z,92
2016-02-06T00:23:09.458Z,92
2016-02-06T00:24:10.257Z,92
2016-02-06T00:25:10.964Z,92
2016-02-06T00:26:11.731Z,92
2016-02-06T00:27:12.548Z,92
2016-02-06T00:28:14.284Z,92
2016-02-06T00:29:15.053Z,92
2016-02-06T00:30:15.820Z,92
2016-02-06T00:31:16.590Z,92
2016-02-06T00:32:17.342Z,92
2016-02-06T00:33:18.112Z,92
2016-02-06T00:34:18.900Z,92
2016-02-06T00:35:19.653Z,92
2016-02-06T00:36:20.406Z,92
2016-02-06T00:37:20.799Z,92
2016-02-06T00:38:22.974Z,92
2016-02-06T00:39:23.727Z,92
2016-02-06T00:40:24.760Z,92
2016-02-06T00:41:25.263Z,92
2016-02-06T00:42:26.031Z,92
2016-02-06T00:43:26.801Z,92
2016-02-06T00:44:27.553Z,92
2016-02-06T00:45:28.321Z,92
2016-02-06T00:46:29.343Z,92
2016-02-06T00:47:30.174Z,92
2016-02-06T00:49:32.663Z,92
2016-02-06T00:50:33.432Z,92
2016-02-06T00:52:35.218Z,92
2016-02-06T00:53:36.238Z,92
2016-02-06T00:54:37.272Z,92
2016-02-06T00:55:38.290Z,92
2016-02-06T00:56:39.043Z,92
2016-02-06T00:57:40.124Z,92
2016-02-06T00:58:41.860Z,92
2016-02-06T00:59:42.863Z,92
2016-02-06T01:00:43.897Z,92
2016-02-06T01:01:44.915Z,92
2016-02-06T01:02:45.949Z,93
2016-02-06T01:03:47.210Z,92
2016-02-06T01:04:48.253Z,92
2016-02-06T01:05:49.262Z,92
2016-02-06T01:06:50.282Z,93
2016-02-06T01:07:51.613Z,93
2016-02-06T01:08:53.350Z,93
2016-02-06T01:09:54.634Z,93
2016-02-06T01:10:55.919Z,93
2016-02-06T01:11:57.186Z,93
2016-02-06T01:12:58.454Z,93
2016-02-06T01:13:59.740Z,93
2016-02-06T01:15:01.008Z,93
2016-02-06T01:16:02.292Z,93
2016-02-06T01:17:03.565Z,93
2016-02-06T01:18:04.911Z,93
2016-02-06T01:19:06.633Z,93
2016-02-06T01:20:07.916Z,93
2016-02-06T01:21:09.201Z,93
2016-02-06T01:22:10.469Z,93
2016-02-06T01:23:11.752Z,93
2016-02-06T01:24:13.052Z,93
2016-02-06T01:25:14.305Z,93
2016-02-06T01:26:15.573Z,93
2016-02-06T01:27:16.843Z,93
2016-02-06T01:28:18.190Z,93
2016-02-06T01:29:19.927Z,93
2016-02-06T01:30:21.211Z,93
2016-02-06T01:31:22.463Z,93
2016-02-06T01:32:23.763Z,93
2016-02-06T01:33:25.023Z,93
2016-02-06T01:34:26.340Z,93
2016-02-06T01:35:27.608Z,93
2016-02-06T01:36:28.861Z,93
2016-02-06T01:37:30.160Z,93
2016-02-06T01:38:31.475Z,93
2016-02-06T01:39:33.197Z,93
2016-02-06T01:40:34.497Z,93
2016-02-06T01:41:35.780Z,93
2016-02-06T01:42:37.033Z,93
2016-02-06T01:43:38.301Z,93
2016-02-06T01:44:39.617Z,93
2016-02-06T01:45:40.885Z,93
2016-02-06T01:46:42.138Z,93
2016-02-06T01:47:43.421Z,93
2016-02-06T01:48:44.752Z,93
2016-02-06T01:49:46.489Z,93
2016-02-06T01:50:47.789Z,93
2016-02-06T01:51:49.044Z,93
2016-02-06T01:52:50.312Z,93
2016-02-06T01:53:51.596Z,93
2016-02-06T01:54:52.865Z,93
2016-02-06T01:55:54.149Z,93
2016-02-06T01:56:55.417Z,93
2016-02-06T01:57:56.701Z,93
2016-02-06T01:58:58.047Z,93
2016-02-06T01:59:59.769Z,93
2016-02-06T02:01:01.054Z,93
2016-02-06T02:02:02.322Z,93
2016-02-06T02:03:03.168Z,93
2016-02-06T02:04:04.891Z,93
2016-02-06T02:05:06.159Z,93
2016-02-06T02:06:07.709Z,93
2016-02-06T02:07:08.711Z,93
2016-02-06T02:08:10.011Z,93
2016-02-06T02:09:11.326Z,93
2016-02-06T02:10:13.048Z,93
2016-02-06T02:11:14.332Z,93
2016-02-06T02:12:15.616Z,93
2016-02-06T02:13:16.886Z,93
2016-02-06T02:14:18.171Z,93
2016-02-06T02:15:19.438Z,93
2016-02-06T02:16:20.723Z,93
2016-02-06T02:17:21.991Z,93
2016-02-06T02:18:23.290Z,93
2016-02-06T02:19:24.606Z,93
2016-02-06T02:20:26.343Z,93
2016-02-06T02:21:27.612Z,93
2016-02-06T02:22:28.910Z,93
2016-02-06T02:23:30.163Z,93
2016-02-06T02:24:31.478Z,93
2016-02-06T02:25:32.731Z,93
2016-02-06T02:26:34.004Z,93
2016-02-06T02:27:35.303Z,93
2016-02-06T02:28:36.556Z,93
2016-02-06T02:29:37.902Z,93
2016-02-06T02:30:39.608Z,93
2016-02-06T02:31:40.899Z,93
2016-02-06T02:32:42.183Z,93
2016-02-06T02:33:43.026Z,93
2016-02-06T02:34:44.732Z,93
2016-02-06T02:35:46.001Z,93
2016-02-06T02:36:47.300Z,93
2016-02-06T02:37:48.553Z,93
2016-02-06T02:38:49.853Z,93
2016-02-06T02:39:51.168Z,93
2016-02-06T02:40:52.924Z,93
2016-02-06T02:41:54.193Z,93
2016-02-06T02:42:56.024Z,93
2016-02-06T02:43:56.729Z,93
2016-02-06T02:45:59.298Z,93
2016-02-06T02:47:00.583Z,93
2016-02-06T02:48:01.851Z,93
2016-02-06T02:49:03.135Z,93
2016-02-06T02:50:04.465Z,93
2016-02-06T02:51:06.202Z,93
2016-02-06T02:52:07.455Z,93
2016-02-06T02:53:08.740Z,93
2016-02-06T02:54:10.023Z,93
2016-02-06T02:55:11.291Z,93
2016-02-06T02:56:12.575Z,93
2016-02-06T02:57:13.860Z,93
2016-02-06T02:58:15.159Z,93
2016-02-06T02:59:16.397Z,93
2016-02-06T03:00:17.727Z,93
2016-02-06T03:01:19.465Z,93
2016-02-06T03:02:20.749Z,93
2016-02-06T03:03:22.022Z,93
2016-02-06T03:04:23.290Z,93
2016-02-06T03:05:24.559Z,93
2016-02-06T03:06:25.858Z,93
2016-02-06T03:07:27.128Z,93
2016-02-06T03:08:28.397Z,93
2016-02-06T03:10:31.027Z,93
2016-02-06T03:11:32.748Z,93
2016-02-06T03:12:34.033Z,93
2016-02-06T03:13:35.286Z,93
2016-02-06T03:14:36.571Z,93
2016-02-06T03:15:37.855Z,93
2016-02-06T03:16:39.123Z,93
2016-02-06T03:17:40.408Z,93
2016-02-06T03:18:41.676Z,93
2016-02-06T03:19:42.961Z,93
2016-02-06T03:20:44.292Z,93
2016-02-06T03:21:46.014Z,93
2016-02-06T03:22:47.297Z,93
2016-02-06T03:23:48.582Z,92
2016-02-06T03:24:49.584Z,93
2016-02-06T03:25:50.869Z,92
2016-02-06T03:26:51.917Z,92
2016-02-06T03:27:52.921Z,92
2016-02-06T03:28:53.924Z,92
2016-02-06T03:29:54.992Z,92
2016-02-06T03:30:56.026Z,92
2016-02-06T03:31:57.763Z,92
2016-02-06T03:32:58.815Z,92
2016-02-06T03:33:59.802Z,92
2016-02-06T03:35:00.571Z,92
2016-02-06T03:36:01.370Z,92
2016-02-06T03:37:02.343Z,92
2016-02-06T03:38:03.126Z,92
2016-02-06T03:39:03.878Z,92
2016-02-06T03:40:04.678Z,92
2016-02-06T03:41:05.465Z,92
2016-02-06T03:42:07.203Z,92
2016-02-06T03:43:07.956Z,92
2016-02-06T03:44:08.723Z,92
2016-02-06T03:45:09.507Z,92
2016-02-06T03:46:10.260Z,92
2016-02-06T03:47:11.028Z,92
2016-02-06T03:48:11.781Z,92
2016-02-06T03:49:12.550Z,92
2016-02-06T03:50:13.302Z,92
2016-02-06T03:51:14.117Z,92
2016-02-06T03:52:15.870Z,92
2016-02-06T03:53:16.641Z,92
2016-02-06T03:54:17.394Z,92
2016-02-06T03:55:18.131Z,92
2016-02-06T03:56:18.899Z,92
2016-02-06T03:57:19.699Z,92
2016-02-06T03:58:20.436Z,92
2016-02-06T03:59:21.219Z,92
2016-02-06T04:00:21.957Z,92
2016-02-06T04:01:22.778Z,92
2016-02-06T04:02:24.530Z,92
2016-02-06T04:03:25.283Z,92
2016-02-06T04:04:26.083Z,92
2016-02-06T04:05:26.804Z,92
2016-02-06T04:06:27.138Z,92
2016-02-06T04:07:28.328Z,92
2016-02-06T04:08:29.097Z,92
2016-02-06T04:09:29.896Z,92
2016-02-06T04:10:30.633Z,92
2016-02-06T04:11:31.433Z,92
2016-02-06T04:12:33.170Z,92
2016-02-06T04:13:33.940Z,92
2016-02-06T04:14:34.693Z,92
2016-02-06T04:15:35.445Z,92
2016-02-06T04:16:36.229Z,92
2016-02-06T04:17:36.982Z,92
2016-02-06T04:18:37.782Z,92
2016-02-06T04:19:38.506Z,92
2016-02-06T04:20:39.290Z,92
2016-02-06T04:21:40.091Z,92
2016-02-06T04:22:41.828Z,92
2016-02-06T04:23:42.596Z,92
2016-02-06T04:24:43.350Z,92
2016-02-06T04:25:44.117Z,92
2016-02-06T04:26:44.886Z,92
2016-02-06T04:27:45.638Z,92
2016-02-06T04:28:46.407Z,92
2016-02-06T04:29:47.162Z,92
2016-02-06T04:30:47.930Z,92
2016-02-06T04:31:48.745Z,92
2016-02-06T04:32:50.513Z,92
2016-02-06T04:33:51.235Z,92
2016-02-06T04:35:52.771Z,92
2016-02-06T04:36:53.524Z,92
2016-02-06T04:37:54.292Z,92
2016-02-06T04:38:55.046Z,92
2016-02-06T04:39:55.815Z,92
2016-02-06T04:40:56.333Z,92
2016-02-06T04:41:57.148Z,92
2016-02-06T04:42:58.888Z,92
2016-02-06T04:43:59.391Z,92
2016-02-06T04:44:59.924Z,92
2016-02-06T04:46:00.662Z,92
2016-02-06T04:47:01.180Z,92
2016-02-06T04:48:01.683Z,92
2016-02-06T04:49:02.436Z,91
2016-02-06T04:50:02.971Z,91
2016-02-06T04:51:03.473Z,91
2016-02-06T04:52:04.071Z,91
2016-02-06T04:53:05.762Z,92
2016-02-06T04:54:06.529Z,92
2016-02-06T04:55:07.285Z,92
2016-02-06T04:56:08.070Z,92
2016-02-06T04:57:08.822Z,92
2016-02-06T04:58:09.575Z,92
2016-02-06T04:59:10.354Z,92
2016-02-06T05:00:11.107Z,92
2016-02-06T05:01:11.875Z,92
2016-02-06T05:02:12.706Z,92
2016-02-06T05:03:14.426Z,92
2016-02-06T05:04:15.196Z,92
2016-02-06T05:05:15.979Z,92
2016-02-06T05:06:16.732Z,92
2016-02-06T05:07:17.484Z,92
2016-02-06T05:08:18.255Z,92
2016-02-06T05:09:19.023Z,92
2016-02-06T05:10:19.777Z,92
2016-02-06T05:11:20.560Z,92
2016-02-06T05:12:21.375Z,92
2016-02-06T05:13:23.097Z,92
2016-02-06T05:14:23.850Z,92
2016-02-06T05:15:24.634Z,92
2016-02-06T05:16:25.387Z,92
2016-02-06T05:17:26.186Z,92
2016-02-06T05:18:26.923Z,92
2016-02-06T05:20:28.445Z,92
2016-02-06T05:21:29.198Z,91
2016-02-06T05:22:29.794Z,91
2016-02-06T05:23:31.500Z,91
2016-02-06T05:24:32.003Z,91
2016-02-06T05:25:32.525Z,91
2016-02-06T05:26:33.028Z,91
2016-02-06T05:27:33.514Z,91
2016-02-06T05:28:34.048Z,91
2016-02-06T05:29:34.327Z,91
2016-02-06T05:30:34.550Z,91
2016-02-06T05:31:34.802Z,91
2016-02-06T05:32:35.117Z,91
2016-02-06T05:33:36.856Z,91
2016-02-06T05:34:37.109Z,91
2016-02-06T05:35:37.362Z,91
2016-02-06T05:36:37.631Z,91
2016-02-06T05:37:37.851Z,91
2016-02-06T05:38:38.103Z,91
2016-02-06T05:39:38.341Z,91
2016-02-06T05:40:38.595Z,91
2016-02-06T05:41:38.850Z,91
2016-02-06T05:42:39.149Z,91
2016-02-06T05:43:40.886Z,91
2016-02-06T05:44:41.123Z,91
2016-02-06T05:45:41.392Z,91
2016-02-06T05:46:41.645Z,91
2016-02-06T05:47:41.914Z,91
2016-02-06T05:48:42.136Z,91
2016-02-06T05:49:42.388Z,91
2016-02-06T05:50:42.626Z,91
2016-02-06T05:51:42.894Z,91
2016-02-06T05:52:43.193Z,91
2016-02-06T05:53:44.931Z,91
2016-02-06T05:54:45.170Z,91
2016-02-06T05:55:45.422Z,91
2016-02-06T05:56:45.659Z,91
2016-02-06T05:57:45.959Z,91
2016-02-06T05:58:46.192Z,91
2016-02-06T05:59:46.431Z,91
2016-02-06T06:00:46.684Z,91
2016-02-06T06:01:46.908Z,91
2016-02-06T06:02:47.207Z,91
2016-02-06T06:03:48.944Z,91
2016-02-06T06:04:49.212Z,91
2016-02-06T06:05:49.449Z,91
2016-02-06T06:06:49.686Z,91
2016-02-06T06:07:49.877Z,91
2016-02-06T06:08:50.191Z,91
2016-02-06T06:09:50.444Z,91
2016-02-06T06:10:50.728Z,91
2016-02-06T06:11:50.981Z,91
2016-02-06T06:12:51.249Z,91
2016-02-06T06:13:52.971Z,91
2016-02-06T06:14:53.223Z,91
2016-02-06T06:15:53.476Z,91
2016-02-06T06:16:53.712Z,91
2016-02-06T06:17:53.982Z,91
2016-02-06T06:18:54.218Z,91
2016-02-06T06:19:54.474Z,91
2016-02-06T06:20:54.757Z,91
2016-02-06T06:21:54.996Z,91
2016-02-06T06:22:55.311Z,91
2016-02-06T06:23:57.002Z,91
2016-02-06T06:24:57.254Z,91
2016-02-06T06:25:57.507Z,91
2016-02-06T06:26:57.744Z,91
2016-02-06T06:27:58.001Z,91
2016-02-06T06:28:58.253Z,91
2016-02-06T06:29:58.510Z,91
2016-02-06T06:30:58.746Z,91
2016-02-06T06:31:58.999Z,91
2016-02-06T06:32:59.315Z,91
2016-02-06T06:34:01.037Z,91
2016-02-06T06:35:01.289Z,91
2016-02-06T06:36:01.526Z,91
2016-02-06T06:37:01.778Z,91
2016-02-06T06:38:02.031Z,91
2016-02-06T06:39:02.284Z,91
2016-02-06T06:40:02.537Z,91
2016-02-06T06:41:02.774Z,91
2016-02-06T06:42:03.043Z,91
2016-02-06T06:43:03.327Z,91
2016-02-06T06:44:05.067Z,91
2016-02-06T06:45:05.054Z,91
2016-02-06T06:46:05.056Z,90
2016-02-06T06:47:04.809Z,90
2016-02-06T06:48:04.535Z,90
2016-02-06T06:49:04.285Z,90
2016-02-06T06:50:03.990Z,90
2016-02-06T06:51:03.727Z,91
2016-02-06T06:52:03.465Z,90
2016-02-06T06:53:03.265Z,90
2016-02-06T06:54:04.989Z,90
2016-02-06T06:55:04.723Z,91
2016-02-06T06:56:04.477Z,90
2016-02-06T06:57:04.230Z,91
2016-02-06T06:58:03.937Z,91
2016-02-06T06:59:03.673Z,91
2016-02-06T07:00:03.410Z,91
2016-02-06T07:01:03.142Z,91
2016-02-06T07:02:02.879Z,90
2016-02-06T07:03:02.413Z,90
2016-02-06T07:04:04.153Z,90
2016-02-06T07:05:03.624Z,90
2016-02-06T07:06:03.111Z,90
2016-02-06T07:07:02.597Z,90
2016-02-06T07:08:02.054Z,90
2016-02-06T07:09:01.542Z,90
2016-02-06T07:10:01.013Z,90
2016-02-06T07:11:59.472Z,90
2016-02-06T07:12:58.756Z,90
2016-02-06T07:14:00.479Z,90
2016-02-06T07:14:59.699Z,90
2016-02-06T07:15:58.920Z,90
2016-02-06T07:16:58.142Z,90
2016-02-06T07:17:57.364Z,90
2016-02-06T07:18:56.585Z,90
2016-02-06T07:19:55.823Z,90
2016-02-06T07:20:55.043Z,90
2016-02-06T07:21:54.266Z,90
2016-02-06T07:22:53.549Z,90
2016-02-06T07:23:55.272Z,90
2016-02-06T07:24:54.493Z,90
2016-02-06T07:25:53.480Z,90
2016-02-06T07:26:52.689Z,90
2016-02-06T07:27:51.645Z,90
2016-02-06T07:28:50.616Z,90
2016-02-06T07:29:49.590Z,90
2016-02-06T07:30:48.545Z,89
2016-02-06T07:31:47.266Z,90
2016-02-06T07:32:46.288Z,90
2016-02-06T07:33:48.010Z,89
2016-02-06T07:34:46.716Z,89
2016-02-06T07:35:45.422Z,89
2016-02-06T07:36:44.143Z,89
2016-02-06T07:37:42.834Z,89
2016-02-06T07:38:41.555Z,89
2016-02-06T07:39:40.260Z,89
2016-02-06T07:40:38.982Z,89
2016-02-06T07:41:37.688Z,89
2016-02-06T07:42:36.409Z,89
2016-02-06T07:43:38.225Z,89
2016-02-06T07:44:36.919Z,89
2016-02-06T07:45:35.593Z,89
2016-02-06T07:46:34.330Z,89
2016-02-06T07:47:33.036Z,89
2016-02-06T07:48:31.304Z,89
2016-02-06T07:49:30.448Z,89
2016-02-06T07:50:28.891Z,89
2016-02-06T07:51:27.849Z,89
2016-02-06T07:52:25.835Z,89
2016-02-06T07:53:27.540Z,89
2016-02-06T07:54:26.011Z,89
2016-02-06T07:55:28.248Z,89
2016-02-06T07:56:30.570Z,89
2016-02-06T07:57:32.833Z,89
2016-02-06T07:58:35.141Z,89
2016-02-06T07:59:37.419Z,89
2016-02-06T08:00:39.716Z,89
2016-02-06T08:01:41.997Z,89
2016-02-06T08:02:44.374Z,89
2016-02-06T08:03:46.080Z,89
2016-02-06T08:04:48.378Z,88
2016-02-06T08:05:50.426Z,88
2016-02-06T08:06:52.443Z,88
2016-02-06T08:07:54.494Z,88
2016-02-06T08:08:56.527Z,88
2016-02-06T08:09:58.576Z,88
2016-02-06T08:11:00.640Z,88
2016-02-06T08:12:02.658Z,88
2016-02-06T08:13:04.769Z,88
2016-02-06T08:14:06.491Z,88
2016-02-06T08:15:08.290Z,88
2016-02-06T08:16:10.092Z,88
2016-02-06T08:17:11.845Z,88
2016-02-06T08:18:13.628Z,88
2016-02-06T08:19:15.428Z,88
2016-02-06T08:20:17.269Z,88
2016-02-06T08:21:18.996Z,88
2016-02-06T08:22:20.863Z,88
2016-02-06T08:23:22.613Z,88
2016-02-06T08:24:24.334Z,88
2016-02-06T08:25:26.119Z,88
2016-02-06T08:26:27.918Z,88
2016-02-06T08:27:29.686Z,88
2016-02-06T08:28:31.485Z,88
2016-02-06T08:29:33.254Z,88
2016-02-06T08:30:34.772Z,88
2016-02-06T08:31:36.307Z,88
2016-02-06T08:32:37.830Z,88
2016-02-06T08:33:39.410Z,87
2016-02-06T08:34:41.133Z,87
2016-02-06T08:35:42.339Z,87
2016-02-06T08:36:43.669Z,87
2016-02-06T08:37:44.969Z,87
2016-02-06T08:38:46.221Z,87
2016-02-06T08:39:47.490Z,87
2016-02-06T08:40:48.524Z,87
2016-02-06T08:41:49.520Z,87
2016-02-06T08:42:50.116Z,87
2016-02-06T08:43:51.618Z,87
2016-02-06T08:44:53.324Z,87
2016-02-06T08:45:54.094Z,87
2016-02-06T08:46:54.880Z,87
2016-02-06T08:47:55.617Z,86
2016-02-06T08:48:56.135Z,86
2016-02-06T08:49:56.357Z,86
2016-02-06T08:50:56.641Z,86
2016-02-06T08:51:56.879Z,85
2016-02-06T08:52:56.585Z,85
2016-02-06T08:53:56.370Z,85
2016-02-06T08:54:58.093Z,85
2016-02-06T08:55:57.315Z,85
2016-02-06T08:56:56.552Z,84
2016-02-06T08:57:55.492Z,84
2016-02-06T08:58:54.448Z,84
2016-02-06T08:59:53.420Z,84
2016-02-06T09:00:52.375Z,84
2016-02-06T09:01:51.086Z,84
2016-02-06T09:02:49.792Z,84
2016-02-06T09:03:48.544Z,84
2016-02-06T09:04:50.276Z,84
2016-02-06T09:05:48.716Z,84
2016-02-06T09:06:47.172Z,83
2016-02-06T09:07:49.472Z,83
2016-02-06T09:08:51.741Z,83
2016-02-06T09:09:54.057Z,84
2016-02-06T09:10:52.498Z,84
2016-02-06T09:11:50.953Z,84
2016-02-06T09:12:49.393Z,84
2016-02-06T09:13:47.880Z,83
2016-02-06T09:14:49.634Z,84
2016-02-06T09:15:48.057Z,84
2016-02-06T09:16:46.077Z,84
2016-02-06T09:17:44.986Z,83
2016-02-06T09:18:47.254Z,84
2016-02-06T09:19:45.709Z,83
2016-02-06T09:20:47.985Z,83
2016-02-06T09:22:52.583Z,83
2016-02-06T09:23:54.899Z,83
2016-02-06T09:24:56.621Z,83
2016-02-06T09:25:58.920Z,82
2016-02-06T09:27:00.705Z,83
2016-02-06T09:28:02.739Z,83
2016-02-06T09:29:04.773Z,83
2016-02-06T09:30:06.807Z,83
2016-02-06T09:31:08.842Z,83
2016-02-06T09:32:10.875Z,83
2016-02-06T09:33:12.894Z,83
2016-02-06T09:34:15.024Z,82
2016-02-06T09:35:16.731Z,82
2016-02-06T09:36:18.515Z,82
2016-02-06T09:37:20.268Z,82
2016-02-06T09:38:21.552Z,82
2016-02-06T09:39:22.804Z,82
2016-02-06T09:40:24.088Z,82
2016-02-06T09:41:25.326Z,81
2016-02-06T09:42:26.344Z,81
2016-02-06T09:43:27.114Z,81
2016-02-06T09:44:27.898Z,80
2016-02-06T09:45:29.603Z,80
2016-02-06T09:46:29.856Z,80
2016-02-06T09:47:29.844Z,79
2016-02-06T09:48:29.300Z,80
2016-02-06T09:49:29.005Z,79
2016-02-06T09:50:28.492Z,80
2016-02-06T09:51:28.261Z,80
2016-02-06T09:52:27.937Z,79
2016-02-06T09:53:27.689Z,79
2016-02-06T09:54:27.457Z,80
2016-02-06T09:55:29.178Z,80
2016-02-06T09:56:29.181Z,80
2016-02-06T09:57:29.122Z,80
2016-02-06T09:58:29.108Z,80
2016-02-06T09:59:29.345Z,80
2016-02-06T10:00:29.630Z,80
2016-02-06T10:01:29.819Z,80
2016-02-06T10:02:29.814Z,80
2016-02-06T10:03:29.785Z,80
2016-02-06T10:04:29.819Z,79
2016-02-06T10:05:31.525Z,80
2016-02-06T10:06:31.543Z,80
2016-02-06T10:07:31.484Z,80
2016-02-06T10:08:31.471Z,80
2016-02-06T10:09:31.708Z,80
2016-02-06T10:10:31.946Z,80
2016-02-06T10:11:32.182Z,80
2016-02-06T10:12:32.419Z,80
2016-02-06T10:13:32.657Z,80
2016-02-06T10:14:32.958Z,80
2016-02-06T10:15:34.710Z,80
2016-02-06T10:16:34.916Z,81
2016-02-06T10:17:35.422Z,80
2016-02-06T10:18:35.643Z,81
2016-02-06T10:19:36.177Z,81
2016-02-06T10:20:36.632Z,80
2016-02-06T10:21:36.869Z,81
2016-02-06T10:22:37.377Z,81
2016-02-06T10:23:37.864Z,81
2016-02-06T10:24:38.695Z,81
2016-02-06T10:25:40.384Z,81
2016-02-06T10:26:40.871Z,81
2016-02-06T10:27:41.390Z,81
2016-02-06T10:28:42.112Z,81
2016-02-06T10:29:42.865Z,81
2016-02-06T10:30:43.618Z,81
2016-02-06T10:31:44.356Z,81
2016-02-06T10:32:45.108Z,81
2016-02-06T10:33:45.861Z,81
2016-02-06T10:34:46.660Z,81
2016-02-06T10:35:48.383Z,81
2016-02-06T10:36:48.870Z,80
2016-02-06T10:37:49.123Z,80
2016-02-06T10:38:49.344Z,80
2016-02-06T10:39:49.019Z,79
2016-02-06T10:40:49.036Z,79
2016-02-06T10:41:48.758Z,79
2016-02-06T10:42:48.497Z,79
2016-02-06T10:43:47.687Z,79
2016-02-06T10:44:46.986Z,79
2016-02-06T10:45:48.676Z,79
2016-02-06T10:46:48.132Z,79
2016-02-06T10:47:47.357Z,79
2016-02-06T10:48:46.564Z,79
2016-02-06T10:49:46.051Z,79
2016-02-06T10:50:45.491Z,79
2016-02-06T10:51:44.994Z,79
2016-02-06T10:52:44.684Z,79
2016-02-06T10:53:43.891Z,79
2016-02-06T10:54:43.424Z,79
2016-02-06T10:55:45.131Z,79
2016-02-06T10:56:44.602Z,79
2016-02-06T10:57:43.824Z,79
2016-02-06T10:58:43.061Z,79
2016-02-06T10:59:42.302Z,79
2016-02-06T11:00:41.726Z,79
2016-02-06T11:01:41.182Z,79
2016-02-06T11:02:40.420Z,79
2016-02-06T11:03:39.814Z,79
2016-02-06T11:04:39.644Z,79
2016-02-06T11:05:41.366Z,79
2016-02-06T11:06:41.087Z,79
2016-02-06T11:07:40.809Z,79
2016-02-06T11:08:40.549Z,79
2016-02-06T15:21:06.415Z,73
2016-02-06T15:22:05.849Z,73
2016-02-06T15:23:05.508Z,73
2016-02-06T15:25:07.048Z,73
2016-02-06T15:26:06.784Z,73
2016-02-06T15:27:06.490Z,73
2016-02-06T15:28:06.211Z,73
2016-02-06T15:29:05.917Z,73
2016-02-06T15:30:05.889Z,73
2016-02-06T15:31:05.864Z,73
2016-02-06T15:32:05.835Z,73
2016-02-06T15:33:05.811Z,73
2016-02-06T15:34:05.845Z,73
2016-02-06T15:36:07.553Z,73
2016-02-06T15:37:07.524Z,74
2016-02-06T15:38:07.731Z,73
2016-02-06T15:39:07.703Z,74
2016-02-06T15:40:07.939Z,74
2016-02-06T15:41:08.175Z,74
2016-02-06T15:42:08.397Z,74
2016-02-06T15:43:08.635Z,74
2016-02-06T15:44:08.919Z,74
2016-02-06T15:45:10.624Z,74
2016-02-06T15:46:11.115Z,74
2016-02-06T15:47:11.602Z,74
2016-02-06T15:48:12.090Z,74
2016-02-06T15:49:12.576Z,74
2016-02-06T15:50:13.064Z,74
2016-02-06T15:51:13.550Z,74
2016-02-06T15:52:14.038Z,74
2016-02-06T15:53:14.525Z,74
2016-02-06T15:54:15.076Z,74
2016-02-06T15:55:16.781Z,74
2016-02-06T15:56:17.268Z,75
2016-02-06T15:57:18.006Z,75
2016-02-06T15:59:19.496Z,75
2016-02-06T16:00:20.248Z,75
2016-02-06T16:01:20.988Z,75
2016-02-06T16:02:21.741Z,75
2016-02-06T16:03:22.760Z,75
2016-02-06T16:04:23.793Z,75
2016-02-06T16:05:25.503Z,75
2016-02-06T16:06:26.506Z,75
2016-02-06T16:07:27.525Z,75
2016-02-06T16:08:28.511Z,75
2016-02-06T16:09:29.530Z,75
2016-02-06T16:10:30.516Z,75
2016-02-06T16:11:31.553Z,75
2016-02-06T16:12:32.524Z,75
2016-02-06T16:13:33.527Z,75
2016-02-06T16:14:34.611Z,75
2016-02-06T16:15:36.302Z,75
2016-02-06T16:16:37.305Z,75
2016-02-06T16:17:38.307Z,75
2016-02-06T16:18:39.309Z,75
2016-02-06T16:19:40.345Z,75
2016-02-06T16:20:41.332Z,75
2016-02-06T16:21:42.319Z,76
2016-02-06T16:22:43.587Z,76
2016-02-06T16:23:44.855Z,76
2016-02-06T16:24:46.186Z,76
2016-02-06T16:25:47.892Z,76
2016-02-06T16:26:49.161Z,76
2016-02-06T16:27:50.398Z,76
2016-02-06T16:28:51.782Z,75
2016-02-06T16:29:52.930Z,75
2016-02-06T16:30:54.182Z,76
2016-02-06T16:31:55.435Z,76
2016-02-06T16:32:56.702Z,76
2016-02-06T16:33:57.955Z,76
2016-02-06T16:34:59.286Z,76
2016-02-06T16:36:00.992Z,75
2016-02-06T16:37:02.307Z,75
2016-02-06T16:38:03.513Z,76
2016-02-06T16:39:05.032Z,76
2016-02-06T16:40:06.536Z,76
2016-02-06T16:41:08.053Z,76
2016-02-06T16:42:09.588Z,76
2016-02-06T16:43:11.105Z,76
2016-02-06T16:44:12.624Z,76
2016-02-06T16:45:14.189Z,76
2016-02-06T16:46:15.913Z,76
2016-02-06T16:47:17.432Z,76
2016-02-06T16:48:18.984Z,76
2016-02-06T16:49:20.455Z,76
2016-02-06T16:50:22.239Z,76
2016-02-06T16:51:24.008Z,76
2016-02-06T16:52:25.776Z,76
2016-02-06T16:53:27.577Z,76
2016-02-06T16:54:29.330Z,76
2016-02-06T16:55:31.161Z,76
2016-02-06T16:56:32.866Z,76
2016-02-06T16:57:34.648Z,76
2016-02-06T16:58:36.408Z,76
2016-02-06T16:59:38.177Z,76
2016-02-06T17:00:39.970Z,76
2016-02-06T17:01:41.715Z,76
2016-02-06T17:02:43.465Z,76
2016-02-06T17:03:45.198Z,76
2016-02-06T17:04:15.557Z,61
2016-02-06T17:04:47.010Z,76
2016-02-06T17:05:15.338Z,68
2016-02-06T17:05:48.978Z,76
2016-02-06T17:05:58.728Z,78
2016-02-06T17:06:11.401Z,80
2016-02-06T17:06:21.292Z,82
2016-02-06T17:06:31.948Z,83
2016-02-06T17:06:43.338Z,84
2016-02-06T17:06:50.588Z,76
2016-02-06T17:06:55.744Z,85
2016-02-06T17:07:08.166Z,85
2016-02-06T17:07:21.119Z,86
2016-02-06T17:07:30.510Z,86
2016-02-06T17:07:39.918Z,87
2016-02-06T17:08:02.418Z,88
2016-02-06T17:08:12.824Z,88
2016-02-06T17:08:23.215Z,88
2016-02-06T17:08:33.840Z,88
2016-02-06T17:08:44.748Z,88
2016-02-06T17:08:54.107Z,76
2016-02-06T17:08:55.654Z,88
2016-02-06T17:09:06.545Z,89
2016-02-06T17:09:17.732Z,89
2016-02-06T17:09:28.920Z,89
2016-02-06T17:09:41.312Z,89
2016-02-06T17:09:52.687Z,89
2016-02-06T17:09:55.875Z,76
2016-02-06T17:10:04.078Z,89
2016-02-06T17:10:15.500Z,89
2016-02-06T17:10:26.891Z,89
2016-02-06T17:10:38.313Z,90
2016-02-06T17:10:49.954Z,90
2016-02-06T17:10:57.657Z,76
2016-02-06T17:11:01.626Z,90
2016-02-06T17:11:13.282Z,90
2016-02-06T17:11:24.563Z,90
2016-02-06T17:11:59.440Z,76
2016-02-06T17:12:26.019Z,90
2016-02-06T17:13:01.208Z,76
2016-02-06T17:14:02.979Z,76
2016-02-06T17:15:04.746Z,76
2016-02-06T17:16:06.577Z,76
2016-02-06T17:17:08.298Z,76
2016-02-06T17:18:10.073Z,76
2016-02-06T17:19:11.856Z,76
2016-02-06T17:20:13.624Z,76
2016-02-06T17:21:15.408Z,76
2016-02-06T17:22:17.177Z,76
2016-02-06T17:23:18.977Z,76
2016-02-06T17:24:20.729Z,76
2016-02-06T17:25:22.529Z,76
2016-02-06T17:26:24.345Z,76
2016-02-06T17:27:26.069Z,76
2016-02-06T17:28:27.885Z,76
2016-02-06T17:29:29.605Z,76
2016-02-06T17:30:31.439Z,76
2016-02-06T17:31:33.161Z,76
2016-02-06T17:32:34.976Z,76
2016-02-06T17:33:36.729Z,76
2016-02-06T17:34:38.515Z,77
2016-02-06T17:35:40.549Z,77
2016-02-06T17:36:42.646Z,77
2016-02-06T17:37:44.367Z,77
2016-02-06T17:38:46.385Z,77
2016-02-06T17:39:48.419Z,77
2016-02-06T17:40:50.439Z,77
2016-02-06T17:41:52.473Z,77
2016-02-06T17:42:54.772Z,77
2016-02-06T17:43:57.072Z,77
2016-02-06T17:44:59.357Z,77
2016-02-06T17:46:01.656Z,77
2016-02-06T17:47:04.018Z,77
2016-02-06T17:48:05.710Z,77
2016-02-06T17:49:08.025Z,77
2016-02-06T17:50:10.294Z,77
2016-02-06T17:51:12.594Z,77
2016-02-06T17:52:14.893Z,77
2016-02-06T17:53:17.147Z,77
2016-02-06T17:54:19.447Z,77
2016-02-06T17:55:21.716Z,77
2016-02-06T17:56:20.207Z,77
2016-02-06T17:57:22.099Z,77
2016-02-06T17:58:24.231Z,77
2016-02-06T17:59:22.687Z,77
2016-02-06T18:00:21.128Z,77
2016-02-06T18:01:19.567Z,77
2016-02-06T18:02:18.024Z,77
2016-02-06T18:03:16.464Z,77
2016-02-06T18:04:14.905Z,77
2016-02-06T18:05:13.391Z,77
2016-02-06T18:06:11.799Z,77
2016-02-06T18:07:10.318Z,78
2016-02-06T18:08:12.040Z,78
2016-02-06T18:09:10.763Z,78
2016-02-06T18:10:09.437Z,78
2016-02-06T18:11:08.175Z,78
2016-02-06T18:12:06.865Z,78
2016-02-06T18:13:05.539Z,78
2016-02-06T18:14:04.249Z,78
2016-02-06T18:15:02.955Z,78
2016-02-06T18:16:01.660Z,78
2016-02-06T18:17:00.400Z,78
2016-02-06T18:18:02.136Z,78